Time;durP1;ratioP1;P1;durP2;ratioP2;P2;SDS_P1;SDS_P2;PMS_P1;PMS_P2;Temp;Humidity;BMP_temperature;BMP_pressure;BME280_temperature;BME280_humidity;BME280_pressure;Samples;Min_cycle;Max_cycle;Signal;HPM_P1;HPM_P2
2022/12/19 00:00:30;;;;;;;78.10;38.50;;;;;;;-10.60;100.00;101084.41;106134;1281;59201;-79
2022/12/19 00:03:15;;;;;;;76.60;38.70;;;;;;;-10.61;100.00;101081.98;106019;1287;67803;-79
2022/12/19 00:05:44;;;;;;;81.40;39.50;;;;;;;-10.62;100.00;101079.54;106161;1281;67592;-78
2022/12/19 00:08:18;;;;;;;79.60;38.10;;;;;;;-10.62;100.00;101077.27;106122;1281;71717;-79
2022/12/19 00:10:54;;;;;;;73.90;36.90;;;;;;;-10.61;100.00;101071.52;106137;1287;58821;-79
2022/12/19 00:13:20;;;;;;;82.50;40.40;;;;;;;-10.59;100.00;101072.27;106121;1288;59557;-79
2022/12/19 00:15:46;;;;;;;83.80;40.80;;;;;;;-10.60;100.00;101061.94;106128;1288;58918;-79
2022/12/19 00:18:11;;;;;;;81.90;39.30;;;;;;;-10.61;100.00;101052.27;105253;1284;1002710;-79
2022/12/19 00:20:37;;;;;;;81.50;39.00;;;;;;;-10.60;100.00;101051.09;106115;1283;59610;-79
2022/12/19 00:23:03;;;;;;;80.60;36.10;;;;;;;-10.60;100.00;101045.80;106107;1288;58749;-79
2022/12/19 00:25:29;;;;;;;78.80;38.20;;;;;;;-10.58;100.00;101040.89;105399;1289;1002972;-79
2022/12/19 00:27:55;;;;;;;75.40;35.60;;;;;;;-10.56;100.00;101035.30;104451;1281;1002407;-79
2022/12/19 00:30:21;;;;;;;81.90;38.90;;;;;;;-10.56;100.00;101034.29;105810;1293;59027;-79
2022/12/19 00:32:47;;;;;;;74.10;35.00;;;;;;;-10.55;100.00;101032.48;106208;1281;59771;-79
2022/12/19 00:35:13;;;;;;;75.60;36.90;;;;;;;-10.54;100.00;101033.88;106261;1284;59242;-80
2022/12/19 00:37:41;;;;;;;82.90;35.00;;;;;;;-10.53;100.00;101032.73;105341;1284;1002131;-79
2022/12/19 00:40:08;;;;;;;79.00;35.40;;;;;;;-10.53;100.00;101032.06;106238;1288;66674;-79
2022/12/19 00:42:33;;;;;;;74.10;37.50;;;;;;;-10.52;100.00;101036.04;106151;1281;72425;-78
2022/12/19 00:45:01;;;;;;;75.30;35.70;;;;;;;-10.53;100.00;101039.61;105403;1287;1002808;-80
2022/12/19 00:47:26;;;;;;;79.80;41.30;;;;;;;-10.52;100.00;101033.99;105375;1282;1002284;-78
2022/12/19 00:49:52;;;;;;;75.60;35.40;;;;;;;-10.52;100.00;101029.88;106101;1288;59855;-78
2022/12/19 00:52:18;;;;;;;78.20;36.60;;;;;;;-10.52;100.00;101026.27;106119;1288;58927;-78
2022/12/19 00:54:44;;;;;;;69.50;31.40;;;;;;;-10.52;100.00;101020.26;106100;1281;59008;-79
2022/12/19 00:57:10;;;;;;;73.30;37.30;;;;;;;-10.53;100.00;101021.76;106116;1281;58959;-79
2022/12/19 00:59:36;;;;;;;80.00;38.10;;;;;;;-10.54;100.00;101018.77;106138;1283;59357;-79
2022/12/19 01:02:02;;;;;;;80.60;37.40;;;;;;;-10.55;100.00;101021.12;105382;1295;1002902;-79
2022/12/19 01:04:28;;;;;;;86.10;40.00;;;;;;;-10.56;100.00;101023.47;106134;1288;58847;-78
2022/12/19 01:06:54;;;;;;;83.00;37.30;;;;;;;-10.58;100.00;101023.20;105354;1288;1002806;-78
2022/12/19 01:09:21;;;;;;;83.90;35.90;;;;;;;-10.60;100.00;101022.77;106129;1282;58884;-78
2022/12/19 01:14:33;;;;;;;78.90;37.70;;;;;;;-10.62;100.00;101022.33;106120;1281;67478;-79
2022/12/19 01:16:59;;;;;;;74.30;35.60;;;;;;;-10.63;100.00;101022.97;106120;1281;70954;-79
2022/12/19 01:19:26;;;;;;;74.50;34.60;;;;;;;-10.64;100.00;101016.70;105887;1291;59021;-79
2022/12/19 01:21:52;;;;;;;80.50;36.50;;;;;;;-10.65;100.00;101012.75;105978;1291;58793;-78
2022/12/19 01:24:19;;;;;;;81.10;39.60;;;;;;;-10.66;100.00;101017.70;105408;1288;1002814;-79
2022/12/19 01:26:45;;;;;;;78.20;37.30;;;;;;;-10.67;100.00;101014.69;106110;1282;58832;-78
2022/12/19 01:29:12;;;;;;;76.80;34.30;;;;;;;-10.68;100.00;101009.85;106112;1288;58980;-79
2022/12/19 01:31:38;;;;;;;72.80;37.00;;;;;;;-10.68;100.00;101002.45;106120;1280;59189;-79
2022/12/19 01:34:04;;;;;;;79.70;36.60;;;;;;;-10.70;100.00;100995.84;106114;1281;59056;-79
2022/12/19 01:36:31;;;;;;;77.70;37.00;;;;;;;-10.72;100.00;100990.06;106128;1284;58948;-79
2022/12/19 01:38:57;;;;;;;73.70;35.80;;;;;;;-10.74;100.00;100984.30;104646;1284;1002623;-79
2022/12/19 01:41:24;;;;;;;79.10;38.60;;;;;;;-10.76;100.00;100978.19;106104;1288;58981;-79
2022/12/19 01:43:59;;;;;;;80.80;36.90;;;;;;;-10.77;100.00;100976.23;106094;1288;58970;-78
2022/12/19 01:46:38;;;;;;;71.40;33.30;;;;;;;-10.79;100.00;100972.52;106137;1281;60229;-78
2022/12/19 01:49:18;;;;;;;69.70;36.20;;;;;;;-10.81;100.00;100964.52;105192;1291;1002935;-78
2022/12/19 01:51:47;;;;;;;66.20;33.80;;;;;;;-10.83;100.00;100962.02;106089;1281;68275;-79
2022/12/19 01:54:16;;;;;;;70.10;33.50;;;;;;;-10.84;100.00;100954.94;106133;1281;72791;-79
2022/12/19 01:56:45;;;;;;;;;;;;;;;-10.85;100.00;100951.96;106157;1289;58874;-79
2022/12/19 01:59:18;;;;;;;73.10;34.20;;;;;;;-10.88;100.00;100948.92;105374;1287;1002083;-79
2022/12/19 02:01:44;;;;;;;69.80;34.30;;;;;;;-10.90;100.00;100946.77;106141;1287;73883;-78
2022/12/19 02:04:12;;;;;;;69.50;35.30;;;;;;;-10.90;100.00;100943.64;106131;1281;59268;-78
2022/12/19 02:06:44;;;;;;;76.30;35.90;;;;;;;-10.90;100.00;100939.71;106146;1281;71625;-78
2022/12/19 02:09:10;;;;;;;71.00;33.70;;;;;;;-10.91;100.00;100933.98;105388;1281;1002488;-78
2022/12/19 02:11:37;;;;;;;73.10;34.90;;;;;;;-10.91;100.00;100926.41;106144;1281;58783;-79
2022/12/19 02:14:03;;;;;;;71.30;36.60;;;;;;;-10.93;100.00;100921.70;106136;1288;58990;-79
2022/12/19 02:16:43;;;;;;;69.50;33.70;;;;;;;-10.94;100.00;100917.52;106136;1289;58957;-79
2022/12/19 02:19:43;;;;;;;65.70;29.40;;;;;;;-10.96;100.00;100929.45;106132;1288;71057;-80
2022/12/19 02:22:18;;;;;;;;;;;;;;;-10.98;100.00;100932.41;106166;1289;58933;-80
2022/12/19 02:25:05;;;;;;;68.70;33.60;;;;;;;-11.02;100.00;100927.26;106336;1278;60545;-78
2022/12/19 02:28:02;;;;;;;72.20;32.60;;;;;;;-11.05;100.00;100931.41;106291;1285;66057;-79
2022/12/19 02:30:34;;;;;;;77.50;34.70;;;;;;;-11.08;100.00;100933.66;105391;1281;1002229;-79
2022/12/19 02:33:14;;;;;;;69.70;36.80;;;;;;;-11.09;100.00;100936.00;105375;1288;1002222;-79
2022/12/19 02:35:52;;;;;;;72.30;35.00;;;;;;;-11.12;100.00;100936.71;106128;1281;58968;-78
2022/12/19 02:38:40;;;;;;;71.70;37.50;;;;;;;-11.13;100.00;100934.58;105856;1285;59052;-79
2022/12/19 02:41:18;;;;;;;80.30;38.60;;;;;;;-11.15;100.00;100928.98;106122;1288;74930;-78
2022/12/19 02:43:47;;;;;;;76.80;42.00;;;;;;;-11.16;100.00;100931.17;106159;1287;68532;-78
2022/12/19 02:46:17;;;;;;;82.60;41.10;;;;;;;-11.18;100.00;100927.31;106144;1289;70963;-78
2022/12/19 02:48:44;;;;;;;74.10;37.00;;;;;;;-11.20;100.00;100926.70;105097;1291;1002328;-78
2022/12/19 02:51:10;;;;;;;83.30;39.00;;;;;;;-11.21;100.00;100930.23;106141;1282;59158;-78
2022/12/19 02:53:37;;;;;;;77.10;37.60;;;;;;;-11.21;100.00;100926.46;106110;1281;73150;-78
2022/12/19 02:56:27;;;;;;;76.50;36.70;;;;;;;-11.21;100.00;100927.80;106138;1289;68081;-78
2022/12/19 02:59:09;;;;;;;72.20;35.70;;;;;;;-11.21;100.00;100924.37;106128;1281;71661;-78
2022/12/19 03:01:46;;;;;;;84.10;40.10;;;;;;;-11.21;100.00;100926.61;106120;1281;59037;-78
2022/12/19 03:04:43;;;;;;;82.00;37.00;;;;;;;-11.21;100.00;100930.92;106010;1281;58975;-79
2022/12/19 03:07:26;;;;;;;79.30;38.60;;;;;;;-11.21;100.00;100930.38;104655;1284;1002961;-79
2022/12/19 03:10:19;;;;;;;84.50;39.20;;;;;;;-11.22;100.00;100927.78;105830;1285;68780;-79
2022/12/19 03:13:07;;;;;;;70.50;34.00;;;;;;;-11.25;100.00;100926.58;106115;1281;65459;-79
2022/12/19 03:15:33;;;;;;;57.20;31.30;;;;;;;-11.30;100.00;100917.74;106127;1287;58970;-78
2022/12/19 03:18:00;;;;;;;74.20;38.40;;;;;;;-11.35;100.00;100917.35;106155;1288;59080;-79
2022/12/19 03:20:35;;;;;;;82.20;39.80;;;;;;;-11.38;100.00;100907.24;106121;1288;72789;-79
2022/12/19 03:23:01;;;;;;;80.10;38.30;;;;;;;-11.40;100.00;100901.44;106145;1288;67718;-78
2022/12/19 03:25:29;;;;;;;73.90;37.30;;;;;;;-11.42;100.00;100897.56;106119;1281;58878;-79
2022/12/19 03:28:01;;;;;;;88.80;40.10;;;;;;;-11.44;100.00;100898.67;106128;1289;59233;-79
2022/12/19 03:30:30;;;;;;;70.60;36.20;;;;;;;-11.45;100.00;100903.98;106009;1291;58892;-79
2022/12/19 03:32:56;;;;;;;83.60;39.10;;;;;;;-11.46;100.00;100909.71;105404;1289;1002130;-79
2022/12/19 03:35:27;;;;;;;78.70;37.70;;;;;;;-11.46;100.00;100910.20;105270;1288;1002318;-79
2022/12/19 03:37:59;;;;;;;78.40;38.70;;;;;;;-11.47;100.00;100909.48;106141;1282;72734;-79
2022/12/19 03:40:28;;;;;;;83.20;39.00;;;;;;;-11.48;100.00;100915.10;105379;1283;1002910;-80
2022/12/19 03:43:08;;;;;;;76.20;36.50;;;;;;;-11.46;100.00;100919.48;105992;1283;60161;-79
2022/12/19 03:45:49;;;;;;;88.80;40.10;;;;;;;-11.46;100.00;100924.84;105804;1294;74088;-80
2022/12/19 03:48:27;;;;;;;78.10;38.80;;;;;;;-11.46;100.00;100926.51;105065;1290;1002273;-79
2022/12/19 03:51:12;;;;;;;79.60;37.70;;;;;;;-11.47;100.00;100921.35;105825;1295;71384;-78
2022/12/19 03:53:44;;;;;;;83.90;40.10;;;;;;;-11.46;100.00;100916.58;105813;1294;58988;-78
2022/12/19 03:56:21;;;;;;;78.10;37.80;;;;;;;-11.47;100.00;100910.02;105815;1293;58930;-80
2022/12/19 03:58:54;;;;;;;82.80;38.60;;;;;;;-11.49;100.00;100905.96;105824;1291;73020;-79
2022/12/19 04:01:21;;;;;;;88.80;40.10;;;;;;;-11.50;100.00;100896.31;105735;1293;67690;-80
2022/12/19 04:03:47;;;;;;;86.70;40.10;;;;;;;-11.52;100.00;100894.35;105791;1287;59176;-79
2022/12/19 04:06:13;;;;;;;79.10;36.50;;;;;;;-11.54;100.00;100890.95;105798;1293;58897;-80
2022/12/19 04:08:40;;;;;;;86.50;38.50;;;;;;;-11.58;100.00;100891.28;105816;1294;59187;-78
2022/12/19 04:11:15;;;;;;;73.30;38.80;;;;;;;-11.60;100.00;100898.52;105815;1291;59449;-79
2022/12/19 04:13:47;;;;;;;77.00;39.70;;;;;;;-11.63;100.00;100892.73;105594;1290;67538;-78
2022/12/19 04:16:57;;;;;;;85.60;37.40;;;;;;;-11.65;100.00;100892.92;105720;1296;72511;-79
2022/12/19 04:19:54;;;;;;;73.10;36.60;;;;;;;-11.67;100.00;100891.98;106129;1288;58800;-79
2022/12/19 04:22:25;;;;;;;66.50;33.00;;;;;;;-11.68;100.00;100892.98;105468;1298;58971;-78
2022/12/19 04:24:53;;;;;;;82.90;35.60;;;;;;;-11.69;100.00;100892.22;105365;1299;74246;-79
2022/12/19 04:27:20;;;;;;;75.80;35.80;;;;;;;-11.70;100.00;100891.84;105463;1289;68098;-78
2022/12/19 04:29:49;;;;;;;81.90;38.20;;;;;;;-11.72;100.00;100886.59;105466;1297;72654;-81
2022/12/19 04:32:16;;;;;;;72.50;37.50;;;;;;;-11.75;100.00;100880.27;105438;1303;59019;-79
2022/12/19 04:34:42;;;;;;;83.20;38.60;;;;;;;-11.77;100.00;100875.55;104737;1296;1002632;-79
2022/12/19 04:37:08;;;;;;;80.30;40.60;;;;;;;-11.80;100.00;100872.98;105476;1297;59433;-78
2022/12/19 04:39:34;;;;;;;86.60;37.70;;;;;;;-11.81;100.00;100862.98;105460;1297;59019;-78
2022/12/19 04:42:00;;;;;;;87.50;38.70;;;;;;;-11.84;100.00;100864.54;104748;1297;1002361;-79
2022/12/19 04:44:25;;;;;;;85.20;38.40;;;;;;;-11.86;100.00;100871.48;104612;1292;1002307;-79
2022/12/19 04:46:51;;;;;;;78.90;38.70;;;;;;;-11.87;100.00;100864.58;105481;1297;60106;-79
2022/12/19 04:49:17;;;;;;;83.00;37.90;;;;;;;-11.89;100.00;100861.05;104786;1296;1003086;-79
2022/12/19 04:51:43;;;;;;;84.30;40.50;;;;;;;-11.92;100.00;100867.91;104712;1296;1003192;-80
2022/12/19 04:54:09;;;;;;;71.70;31.90;;;;;;;-11.94;100.00;100866.77;104659;1297;1002655;-78
2022/12/19 04:56:34;;;;;;;80.70;38.60;;;;;;;-11.96;100.00;100865.83;104674;1297;1002804;-78
2022/12/19 04:59:00;;;;;;;81.00;40.00;;;;;;;-11.98;100.00;100869.48;105595;1298;59480;-79
2022/12/19 05:01:27;;;;;;;81.70;38.40;;;;;;;-11.99;100.00;100869.08;106060;1288;59385;-78
2022/12/19 05:03:53;;;;;;;91.30;40.80;;;;;;;-12.01;100.00;100854.58;106084;1289;59138;-78
2022/12/19 05:06:19;;;;;;;86.80;39.70;;;;;;;-12.03;100.00;100849.52;105370;1287;1002634;-79
2022/12/19 05:08:45;;;;;;;79.60;38.60;;;;;;;-12.05;100.00;100844.24;104600;1281;1002292;-80
2022/12/19 05:11:14;;;;;;;82.70;39.20;;;;;;;-12.09;100.00;100842.85;106117;1281;58916;-80
2022/12/19 05:13:40;;;;;;;84.60;40.70;;;;;;;-12.11;100.00;100842.75;105859;1290;71719;-80
2022/12/19 05:16:08;;;;;;;90.20;42.20;;;;;;;-12.13;100.00;100842.65;106103;1287;58857;-80
2022/12/19 05:18:36;;;;;;;85.90;42.70;;;;;;;-12.14;100.00;100835.21;105934;1291;60201;-80
2022/12/19 05:21:03;;;;;;;90.20;42.90;;;;;;;-12.17;100.00;100832.86;105916;1290;73240;-81
2022/12/19 05:23:29;;;;;;;96.50;43.90;;;;;;;-12.20;100.00;100835.25;105767;1296;66827;-80
2022/12/19 05:25:59;;;;;;;78.90;38.20;;;;;;;-12.21;100.00;100832.44;106044;1288;59063;-80
2022/12/19 05:28:26;;;;;;;95.20;46.40;;;;;;;-12.23;100.00;100832.88;105350;1297;1002290;-80
2022/12/19 05:31:01;;;;;;;94.40;43.10;;;;;;;-12.25;100.00;100825.91;106093;1289;59030;-79
2022/12/19 05:33:27;;;;;;;84.30;41.10;;;;;;;-12.27;100.00;100838.46;105180;1280;1002041;-80
2022/12/19 05:35:53;;;;;;;100.50;44.70;;;;;;;-12.29;100.00;100840.41;106064;1282;59281;-80
2022/12/19 05:38:19;;;;;;;103.40;47.80;;;;;;;-12.31;100.00;100843.21;104770;1289;1002821;-80
2022/12/19 05:40:45;;;;;;;89.20;44.90;;;;;;;-12.32;100.00;100842.29;106378;1287;58784;-79
2022/12/19 05:43:11;;;;;;;108.30;47.20;;;;;;;-12.33;100.00;100838.30;106001;1288;249848;-81
2022/12/19 05:45:38;;;;;;;97.60;44.70;;;;;;;-12.34;100.00;100845.45;106101;1281;58895;-78
2022/12/19 05:48:04;;;;;;;99.90;45.30;;;;;;;-12.34;100.00;100849.89;106080;1288;58813;-79
2022/12/19 05:50:31;;;;;;;104.40;48.10;;;;;;;-12.36;100.00;100848.63;106067;1287;58987;-80
2022/12/19 05:52:57;;;;;;;94.40;44.00;;;;;;;-12.39;100.00;100854.78;105312;1282;1002926;-79
2022/12/19 05:55:23;;;;;;;106.70;51.50;;;;;;;-12.43;100.00;100851.48;106092;1289;59610;-80
2022/12/19 05:57:49;;;;;;;89.90;44.30;;;;;;;-12.45;100.00;100844.48;106069;1288;58921;-79
2022/12/19 06:00:15;;;;;;;100.50;47.70;;;;;;;-12.47;100.00;100843.23;105371;1288;1015558;-80
2022/12/19 06:02:44;;;;;;;90.40;45.70;;;;;;;-12.47;100.00;100843.70;106029;1295;59814;-79
2022/12/19 06:05:10;;;;;;;103.60;48.60;;;;;;;-12.49;100.00;100852.86;106064;1287;59979;-81
2022/12/19 06:07:37;;;;;;;94.10;46.40;;;;;;;-12.50;100.00;100849.55;105354;1282;1002737;-80
2022/12/19 06:10:05;;;;;;;101.50;47.60;;;;;;;-12.54;100.00;100849.14;106072;1289;58922;-80
2022/12/19 06:12:31;;;;;;;93.20;44.40;;;;;;;-12.59;100.00;100843.89;105158;1289;1002250;-79
2022/12/19 06:14:57;;;;;;;84.70;43.90;;;;;;;-12.63;100.00;100847.09;105606;1294;58975;-79
2022/12/19 06:17:23;;;;;;;81.40;42.20;;;;;;;-12.71;100.00;100850.41;106046;1288;59157;-79
2022/12/19 06:19:49;;;;;;;88.10;39.10;;;;;;;-12.80;100.00;100848.88;106070;1283;58977;-79
2022/12/19 06:22:15;;;;;;;83.50;39.40;;;;;;;-12.89;100.00;100846.86;106064;1288;58877;-80
2022/12/19 06:24:41;;;;;;;84.60;41.80;;;;;;;-12.96;100.00;100854.98;106048;1282;58876;-80
2022/12/19 06:27:07;;;;;;;87.20;40.20;;;;;;;-13.03;100.00;100851.52;106075;1288;58992;-80
2022/12/19 06:29:33;;;;;;;86.70;43.50;;;;;;;-13.06;100.00;100859.23;106103;1289;58892;-80
2022/12/19 06:31:59;;;;;;;100.60;44.50;;;;;;;-13.11;100.00;100859.98;105341;1288;1002422;-80
2022/12/19 06:34:25;;;;;;;93.70;43.80;;;;;;;-13.14;100.00;100869.38;106069;1288;59013;-79
2022/12/19 06:36:54;;;;;;;88.70;46.70;;;;;;;-13.19;100.00;100864.80;105320;1288;1002476;-79
2022/12/19 06:39:21;;;;;;;103.90;49.00;;;;;;;-13.22;100.00;100864.45;106096;1288;59209;-80
2022/12/19 06:44:32;;;;;;;105.50;52.50;;;;;;;-13.28;100.00;100863.34;106078;1288;67738;-79
2022/12/19 06:46:58;;;;;;;103.50;50.30;;;;;;;-13.28;100.00;100864.02;105321;1289;1002459;-79
2022/12/19 06:49:24;;;;;;;108.60;50.30;;;;;;;-13.26;100.00;100862.73;105768;1298;58951;-79
2022/12/19 06:51:50;;;;;;;103.90;48.40;;;;;;;-13.21;100.00;100867.23;106071;1287;58998;-78
2022/12/19 06:54:17;;;;;;;103.40;49.00;;;;;;;-13.17;100.00;100867.31;106079;1282;58847;-79
2022/12/19 06:56:43;;;;;;;94.10;47.00;;;;;;;-13.17;100.00;100868.20;106069;1280;59897;-79
2022/12/19 06:59:14;;;;;;;104.40;48.90;;;;;;;-13.17;100.00;100859.79;105329;1288;1002333;-79
2022/12/19 07:01:57;;;;;;;95.60;48.20;;;;;;;-13.17;100.00;100858.42;105327;1286;1002796;-79
2022/12/19 07:04:47;;;;;;;102.00;48.60;;;;;;;-13.16;100.00;100864.80;105737;1294;60014;-78
2022/12/19 07:07:13;;;;;;;99.40;49.30;;;;;;;-13.14;100.00;100854.48;105686;1294;75245;-78
2022/12/19 07:09:39;;;;;;;96.70;48.90;;;;;;;-13.13;100.00;100850.32;105858;1292;67027;-79
2022/12/19 07:12:06;;;;;;;98.10;46.70;;;;;;;-13.08;100.00;100853.29;105979;1291;58937;-79
2022/12/19 07:14:32;;;;;;;87.50;42.80;;;;;;;-12.99;100.00;100845.59;105952;1292;59146;-86
2022/12/19 07:17:01;;;;;;;98.30;48.90;;;;;;;-12.91;100.00;100850.16;106112;1280;59105;-90
2022/12/19 07:19:30;;;;;;;94.20;46.40;;;;;;;-12.82;100.00;100845.20;105979;1292;73969;-81
2022/12/19 07:21:58;;;;;;;89.60;44.50;;;;;;;-12.72;100.00;100844.73;105190;1284;1003016;-81
2022/12/19 07:24:24;;;;;;;92.30;43.70;;;;;;;-12.63;100.00;100840.09;105057;1295;1002631;-81
2022/12/19 07:26:50;;;;;;;96.30;43.90;;;;;;;-12.55;100.00;100836.10;105967;1291;59154;-80
2022/12/19 07:29:16;;;;;;;95.60;45.00;;;;;;;-12.45;100.00;100834.23;105908;1290;59485;-81
2022/12/19 07:31:43;;;;;;;86.70;45.90;;;;;;;-12.35;100.00;100832.89;105969;1282;58799;-80
2022/12/19 07:34:09;;;;;;;81.80;40.70;;;;;;;-12.27;100.00;100825.11;105992;1287;58989;-79
2022/12/19 07:36:34;;;;;;;95.30;47.00;;;;;;;-12.19;100.00;100826.05;106086;1287;59258;-83
2022/12/19 07:39:01;;;;;;;99.80;49.30;;;;;;;-12.13;100.00;100826.71;106054;1295;58920;-77
2022/12/19 07:41:27;;;;;;;89.70;42.50;;;;;;;-12.07;100.00;100830.81;106088;1288;59060;-77
2022/12/19 07:43:53;;;;;;;91.20;46.50;;;;;;;-12.01;100.00;100822.55;105333;1288;1002877;-85
2022/12/19 07:46:20;;;;;;;94.40;46.80;;;;;;;-11.96;100.00;100819.55;106113;1287;59106;-87
2022/12/19 07:48:46;;;;;;;81.90;40.40;;;;;;;-11.91;100.00;100819.29;106098;1289;59234;-85
2022/12/19 07:51:12;;;;;;;76.90;37.10;;;;;;;-11.85;100.00;100814.44;105339;1287;1002949;-83
2022/12/19 07:53:38;;;;;;;87.80;45.40;;;;;;;-11.79;100.00;100817.66;106050;1289;59477;-80
2022/12/19 07:56:05;;;;;;;93.50;45.80;;;;;;;-11.73;100.00;100809.38;106069;1289;59224;-79
2022/12/19 07:58:30;;;;;;;79.40;39.00;;;;;;;-11.67;100.00;100809.02;105277;1285;1002411;-79
2022/12/19 08:00:59;;;;;;;84.70;44.90;;;;;;;-11.60;100.00;100810.20;106043;1288;58922;-79
2022/12/19 08:03:27;;;;;;;88.10;41.30;;;;;;;-11.52;100.00;100806.19;104967;1291;1003064;-78
2022/12/19 08:05:59;;;;;;;89.40;44.90;;;;;;;-11.43;100.00;100803.70;106070;1287;75773;-82
2022/12/19 08:08:25;;;;;;;89.20;43.10;;;;;;;-11.36;100.00;100801.84;105332;1279;1002462;-81
2022/12/19 08:10:52;;;;;;;89.70;43.00;;;;;;;-11.28;100.00;100790.95;106085;1288;58960;-81
2022/12/19 08:13:18;;;;;;;100.80;44.50;;;;;;;-11.17;100.00;100780.99;106071;1288;58942;-80
2022/12/19 08:15:43;;;;;;;86.50;43.40;;;;;;;-11.07;100.00;100777.20;105326;1291;1002409;-81
2022/12/19 08:18:09;;;;;;;88.20;41.50;;;;;;;-11.00;100.00;100782.98;106070;1295;59023;-82
2022/12/19 08:20:35;;;;;;;86.20;42.70;;;;;;;-10.94;100.00;100788.30;106077;1289;59051;-81
2022/12/19 08:23:01;;;;;;;86.70;42.70;;;;;;;-10.88;100.00;100788.73;106102;1295;58938;-80
2022/12/19 08:25:27;;;;;;;83.50;43.70;;;;;;;-10.80;100.00;100789.43;106076;1274;59165;-81
2022/12/19 08:27:53;;;;;;;92.40;45.40;;;;;;;-10.74;100.00;100785.61;105394;1280;1002172;-81
2022/12/19 08:30:19;;;;;;;95.00;45.40;;;;;;;-10.69;100.00;100791.52;105324;1288;1002428;-81
2022/12/19 08:32:47;;;;;;;93.20;49.60;;;;;;;-10.60;100.00;100792.48;104590;1288;1015063;-82
2022/12/19 08:35:14;;;;;;;95.00;45.60;;;;;;;-10.47;100.00;100796.14;105339;1291;1002275;-82
2022/12/19 08:37:41;;;;;;;104.90;49.50;;;;;;;-10.39;100.00;100793.11;106028;1292;58913;-81
2022/12/19 08:40:09;;;;;;;86.90;45.40;;;;;;;-10.31;100.00;100793.45;106083;1288;58974;-82
2022/12/19 08:42:35;;;;;;;90.30;49.10;;;;;;;-10.24;100.00;100783.11;106099;1289;68491;-81
2022/12/19 08:45:01;;;;;;;87.30;45.70;;;;;;;-10.14;100.00;100780.59;106093;1288;71792;-82
2022/12/19 08:47:32;;;;;;;91.70;45.60;;;;;;;-10.09;100.00;100778.25;105874;1292;59200;-80
2022/12/19 08:49:57;;;;;;;88.10;44.40;;;;;;;-10.04;100.00;100780.16;106093;1290;58959;-82
2022/12/19 08:52:23;;;;;;;88.10;47.40;;;;;;;-10.01;100.00;100778.11;106057;1291;58916;-80
2022/12/19 08:54:50;;;;;;;93.00;46.00;;;;;;;-9.93;100.00;100784.30;106122;1284;59109;-81
2022/12/19 08:57:16;;;;;;;93.10;47.40;;;;;;;-9.85;100.00;100785.48;105487;1281;1002733;-83
2022/12/19 08:59:41;;;;;;;87.20;44.80;;;;;;;-9.74;100.00;100783.58;106071;1287;59045;-81
2022/12/19 09:02:09;;;;;;;96.70;49.60;;;;;;;-9.64;100.00;100777.13;105319;1289;1002746;-82
2022/12/19 09:04:35;;;;;;;97.10;54.00;;;;;;;-9.54;100.00;100770.33;106010;1292;59035;-78
2022/12/19 09:07:01;;;;;;;91.90;48.00;;;;;;;-9.45;100.00;100762.08;106067;1291;59065;-81
2022/12/19 09:09:27;;;;;;;87.60;46.10;;;;;;;-9.39;100.00;100770.10;106072;1285;59117;-82
2022/12/19 09:11:53;;;;;;;93.90;48.70;;;;;;;-9.29;100.00;100768.95;106100;1278;58986;-82
2022/12/19 09:14:19;;;;;;;124.60;62.50;;;;;;;-9.25;100.00;100772.23;106131;1289;58938;-83
2022/12/19 09:16:45;;;;;;;97.40;50.40;;;;;;;-9.18;100.00;100775.77;106084;1288;68417;-82
2022/12/19 09:19:14;;;;;;;102.60;49.80;;;;;;;-9.11;100.00;100763.67;106085;1287;59058;-81
2022/12/19 09:21:40;;;;;;;90.90;46.80;;;;;;;-9.07;100.00;100752.81;106080;1287;58959;-79
2022/12/19 09:24:07;;;;;;;97.10;48.70;;;;;;;-9.02;100.00;100742.34;106094;1288;58865;-82
2022/12/19 09:26:35;;;;;;;90.70;47.20;;;;;;;-8.91;100.00;100756.36;106074;1289;75506;-83
2022/12/19 09:29:02;;;;;;;96.40;49.70;;;;;;;-8.86;100.00;100757.96;106093;1291;68931;-82
2022/12/19 09:31:28;;;;;;;106.40;53.30;;;;;;;-8.81;100.00;100751.92;106087;1289;71635;-81
2022/12/19 09:33:55;;;;;;;99.80;54.20;;;;;;;-8.73;100.00;100749.83;105361;1279;1003179;-83
2022/12/19 09:36:23;;;;;;;94.80;50.00;;;;;;;-8.63;100.00;100744.52;105799;1292;58857;-82
2022/12/19 09:38:53;;;;;;;95.70;48.10;;;;;;;-8.55;100.00;100733.30;106084;1289;74077;-82
2022/12/19 09:41:22;;;;;;;91.50;49.40;;;;;;;-8.47;100.00;100740.50;106083;1289;66364;-82
2022/12/19 09:44:10;;;;;;;106.50;51.80;;;;;;;-8.39;100.00;100730.44;105331;1295;1002650;-83
2022/12/19 09:46:46;;;;;;;94.00;50.40;;;;;;;-8.29;100.00;100735.25;106086;1289;58873;-81
2022/12/19 09:49:17;;;;;;;105.30;52.30;;;;;;;-8.16;100.00;100735.39;105995;1285;59118;-82
2022/12/19 09:51:57;;;;;;;111.10;59.70;;;;;;;-7.97;100.00;100735.53;106080;1288;72433;-82
2022/12/19 09:54:47;;;;;;;95.50;49.90;;;;;;;-7.85;100.00;100729.23;106082;1288;69045;-83
2022/12/19 09:57:25;;;;;;;89.90;47.10;;;;;;;-7.79;100.00;100722.22;105983;1292;71523;-83
2022/12/19 10:03:13;;;;;;;90.30;47.60;;;;;;;-7.80;100.00;100708.73;106026;1288;58787;-81
2022/12/19 10:05:48;;;;;;;88.30;48.00;;;;;;;-7.74;100.00;100697.73;106079;1289;74486;-83
2022/12/19 10:08:17;;;;;;;97.30;52.60;;;;;;;-7.67;100.00;100684.48;106005;1292;69806;-82
2022/12/19 10:11:05;;;;;;;87.60;45.60;;;;;;;-7.62;100.00;100681.90;106018;1289;70898;-79
2022/12/19 10:13:39;;;;;;;92.80;48.10;;;;;;;-7.61;100.00;100676.10;106063;1285;59807;-82
2022/12/19 10:16:24;;;;;;;89.10;49.40;;;;;;;-7.57;100.00;100671.34;106068;1287;60475;-81
2022/12/19 10:18:55;;;;;;;96.90;49.60;;;;;;;-7.50;100.00;100668.48;105740;1290;72870;-81
2022/12/19 10:21:34;;;;;;;161.20;76.50;;;;;;;-7.41;100.00;100666.02;105743;1291;67664;-82
2022/12/19 10:24:19;;;;;;;135.50;71.60;;;;;;;-7.37;100.00;100666.14;105636;1295;71617;-82
2022/12/19 10:26:55;;;;;;;100.60;55.40;;;;;;;-7.34;100.00;100661.06;105737;1290;59039;-81
2022/12/19 10:29:33;;;;;;;116.40;68.30;;;;;;;-7.32;100.00;100658.88;105651;1293;59142;-83
2022/12/19 10:32:20;;;;;;;104.50;60.80;;;;;;;-7.23;100.00;100658.11;105551;1297;75246;-82
2022/12/19 10:34:47;;;;;;;98.70;57.40;;;;;;;-7.10;100.00;100653.88;105753;1294;67575;-82
2022/12/19 10:37:27;;;;;;;112.80;66.90;;;;;;;-6.98;100.00;100648.69;105748;1296;74275;-82
2022/12/19 10:40:11;;;;;;;114.70;73.20;;;;;;;-6.82;100.00;100642.79;105019;1290;1002787;-82
2022/12/19 10:42:42;;;;;;;109.70;63.70;;;;;;;-6.65;100.00;100643.63;105746;1297;58910;-82
2022/12/19 10:45:16;;;;;;;97.40;52.70;;;;;;;-6.53;100.00;100637.41;105016;1295;1015535;-82
2022/12/19 10:47:42;;;;;;;95.30;50.90;;;;;;;-6.44;100.00;100637.83;105653;1294;66352;-82
2022/12/19 10:50:19;;;;;;;94.50;49.70;;;;;;;-6.39;100.00;100635.40;105170;1289;1002314;-82
2022/12/19 10:52:53;;;;;;;96.00;51.40;;;;;;;-6.29;100.00;100627.89;105258;1287;1002504;-81
2022/12/19 10:55:48;;;;;;;93.40;48.40;;;;;;;-6.25;100.00;100615.54;106082;1281;59051;-81
2022/12/19 10:58:45;;;;;;;92.10;50.90;;;;;;;-6.23;100.00;100615.24;104849;1298;1002680;-83
2022/12/19 11:01:14;;;;;;;95.60;50.00;;;;;;;-6.22;100.00;100613.02;105006;1302;66419;-83
2022/12/19 11:03:44;;;;;;;88.00;48.90;;;;;;;-6.17;100.00;100603.63;104959;1305;72000;-83
2022/12/19 11:06:34;;;;;;;92.50;50.00;;;;;;;-6.10;100.00;100602.08;105003;1302;58948;-82